sensor_id;sensor_type;location;lat;lon;timestamp;P1;durP1;ratioP1;P2;durP2;ratioP2
12290;SDS011;6208;48.956;9.076;2024-03-02T00:01:23;18.70;;;15.27;;
12290;SDS011;6208;48.956;9.076;2024-03-02T00:04:07;18.27;;;14.93;;
12290;SDS011;6208;48.956;9.076;2024-03-02T00:06:52;17.47;;;14.00;;
12290;SDS011;6208;48.956;9.076;2024-03-02T00:09:38;18.13;;;13.60;;
12290;SDS011;6208;48.956;9.076;2024-03-02T00:12:23;19.03;;;13.93;;
12290;SDS011;6208;48.956;9.076;2024-03-02T00:18:14;15.50;;;12.23;;
12290;SDS011;6208;48.956;9.076;2024-03-02T00:21:02;15.60;;;13.47;;
12290;SDS011;6208;48.956;9.076;2024-03-02T00:23:47;16.33;;;13.40;;
12290;SDS011;6208;48.956;9.076;2024-03-02T00:26:35;17.27;;;13.63;;
12290;SDS011;6208;48.956;9.076;2024-03-02T00:29:19;15.30;;;13.13;;
12290;SDS011;6208;48.956;9.076;2024-03-02T00:32:07;14.60;;;12.97;;
12290;SDS011;6208;48.956;9.076;2024-03-02T00:34:56;14.67;;;12.33;;
12290;SDS011;6208;48.956;9.076;2024-03-02T00:37:40;15.67;;;12.83;;
12290;SDS011;6208;48.956;9.076;2024-03-02T00:40:27;16.30;;;13.67;;
12290;SDS011;6208;48.956;9.076;2024-03-02T00:46:13;21.70;;;15.00;;
12290;SDS011;6208;48.956;9.076;2024-03-02T00:49:00;17.33;;;15.00;;
12290;SDS011;6208;48.956;9.076;2024-03-02T00:51:46;20.60;;;15.33;;
12290;SDS011;6208;48.956;9.076;2024-03-02T00:54:32;17.40;;;14.47;;
12290;SDS011;6208;48.956;9.076;2024-03-02T00:57:17;18.30;;;15.00;;
12290;SDS011;6208;48.956;9.076;2024-03-02T01:00:01;19.17;;;14.57;;
12290;SDS011;6208;48.956;9.076;2024-03-02T01:02:48;17.70;;;13.87;;
12290;SDS011;6208;48.956;9.076;2024-03-02T01:05:33;19.43;;;14.50;;
12290;SDS011;6208;48.956;9.076;2024-03-02T01:08:19;19.50;;;15.13;;
12290;SDS011;6208;48.956;9.076;2024-03-02T01:11:03;18.97;;;14.20;;
12290;SDS011;6208;48.956;9.076;2024-03-02T01:13:48;15.50;;;13.67;;
12290;SDS011;6208;48.956;9.076;2024-03-02T01:16:32;16.17;;;13.70;;
12290;SDS011;6208;48.956;9.076;2024-03-02T01:19:17;20.17;;;14.07;;
12290;SDS011;6208;48.956;9.076;2024-03-02T01:22:02;15.30;;;12.97;;
12290;SDS011;6208;48.956;9.076;2024-03-02T01:24:46;18.87;;;13.97;;
12290;SDS011;6208;48.956;9.076;2024-03-02T01:27:30;16.33;;;14.00;;
12290;SDS011;6208;48.956;9.076;2024-03-02T01:30:15;15.07;;;13.47;;
12290;SDS011;6208;48.956;9.076;2024-03-02T01:32:59;18.53;;;13.80;;
12290;SDS011;6208;48.956;9.076;2024-03-02T01:35:44;18.23;;;13.47;;
12290;SDS011;6208;48.956;9.076;2024-03-02T01:38:28;14.93;;;12.00;;
12290;SDS011;6208;48.956;9.076;2024-03-02T01:41:12;16.13;;;11.90;;
12290;SDS011;6208;48.956;9.076;2024-03-02T01:43:57;14.97;;;12.00;;
12290;SDS011;6208;48.956;9.076;2024-03-02T01:46:41;13.67;;;12.00;;
12290;SDS011;6208;48.956;9.076;2024-03-02T01:49:25;19.50;;;13.67;;
12290;SDS011;6208;48.956;9.076;2024-03-02T01:52:10;16.03;;;13.40;;
12290;SDS011;6208;48.956;9.076;2024-03-02T01:54:55;18.93;;;13.33;;
12290;SDS011;6208;48.956;9.076;2024-03-02T01:57:39;14.87;;;13.00;;
12290;SDS011;6208;48.956;9.076;2024-03-02T02:00:24;15.97;;;12.80;;
12290;SDS011;6208;48.956;9.076;2024-03-02T02:03:09;15.67;;;13.40;;
12290;SDS011;6208;48.956;9.076;2024-03-02T02:05:54;13.23;;;11.93;;
12290;SDS011;6208;48.956;9.076;2024-03-02T02:08:38;15.63;;;12.73;;
12290;SDS011;6208;48.956;9.076;2024-03-02T02:11:23;13.67;;;11.70;;
12290;SDS011;6208;48.956;9.076;2024-03-02T02:14:08;13.30;;;11.33;;
12290;SDS011;6208;48.956;9.076;2024-03-02T02:16:52;12.63;;;10.73;;
12290;SDS011;6208;48.956;9.076;2024-03-02T02:19:37;13.97;;;11.43;;
12290;SDS011;6208;48.956;9.076;2024-03-02T02:22:21;12.53;;;10.90;;
12290;SDS011;6208;48.956;9.076;2024-03-02T02:25:05;13.60;;;11.73;;
12290;SDS011;6208;48.956;9.076;2024-03-02T02:27:50;12.67;;;11.03;;
12290;SDS011;6208;48.956;9.076;2024-03-02T02:30:35;13.63;;;11.60;;
12290;SDS011;6208;48.956;9.076;2024-03-02T02:33:19;15.57;;;12.47;;
12290;SDS011;6208;48.956;9.076;2024-03-02T02:36:04;15.43;;;12.43;;
12290;SDS011;6208;48.956;9.076;2024-03-02T02:38:48;16.93;;;12.67;;
12290;SDS011;6208;48.956;9.076;2024-03-02T02:41:33;16.30;;;13.03;;
12290;SDS011;6208;48.956;9.076;2024-03-02T02:44:17;14.70;;;11.47;;
12290;SDS011;6208;48.956;9.076;2024-03-02T02:47:01;14.43;;;11.53;;
12290;SDS011;6208;48.956;9.076;2024-03-02T02:49:46;14.67;;;11.23;;
12290;SDS011;6208;48.956;9.076;2024-03-02T02:52:31;16.13;;;12.00;;
12290;SDS011;6208;48.956;9.076;2024-03-02T02:55:16;14.53;;;11.70;;
12290;SDS011;6208;48.956;9.076;2024-03-02T02:58:01;13.77;;;12.23;;
12290;SDS011;6208;48.956;9.076;2024-03-02T03:00:46;13.07;;;11.60;;
12290;SDS011;6208;48.956;9.076;2024-03-02T03:03:31;13.23;;;11.37;;
12290;SDS011;6208;48.956;9.076;2024-03-02T03:06:15;14.57;;;11.67;;
12290;SDS011;6208;48.956;9.076;2024-03-02T03:09:00;13.20;;;11.80;;
12290;SDS011;6208;48.956;9.076;2024-03-02T03:11:44;14.73;;;12.10;;
12290;SDS011;6208;48.956;9.076;2024-03-02T03:14:29;13.40;;;11.53;;
12290;SDS011;6208;48.956;9.076;2024-03-02T03:17:13;15.40;;;11.67;;
12290;SDS011;6208;48.956;9.076;2024-03-02T03:19:58;12.63;;;11.13;;
12290;SDS011;6208;48.956;9.076;2024-03-02T03:22:44;13.03;;;11.23;;
12290;SDS011;6208;48.956;9.076;2024-03-02T03:25:29;15.67;;;11.70;;
12290;SDS011;6208;48.956;9.076;2024-03-02T03:28:14;13.13;;;11.20;;
12290;SDS011;6208;48.956;9.076;2024-03-02T03:30:58;12.40;;;11.10;;
12290;SDS011;6208;48.956;9.076;2024-03-02T03:33:43;14.90;;;11.47;;
12290;SDS011;6208;48.956;9.076;2024-03-02T03:36:28;13.43;;;10.90;;
12290;SDS011;6208;48.956;9.076;2024-03-02T03:39:12;14.97;;;11.97;;
12290;SDS011;6208;48.956;9.076;2024-03-02T03:41:57;12.30;;;10.73;;
12290;SDS011;6208;48.956;9.076;2024-03-02T03:44:41;13.33;;;10.80;;
12290;SDS011;6208;48.956;9.076;2024-03-02T03:47:26;14.27;;;10.37;;
12290;SDS011;6208;48.956;9.076;2024-03-02T03:50:11;13.23;;;10.93;;
12290;SDS011;6208;48.956;9.076;2024-03-02T03:52:56;11.83;;;10.67;;
12290;SDS011;6208;48.956;9.076;2024-03-02T03:55:40;11.83;;;10.33;;
12290;SDS011;6208;48.956;9.076;2024-03-02T03:58:25;13.27;;;11.20;;
12290;SDS011;6208;48.956;9.076;2024-03-02T04:01:10;14.83;;;11.57;;
12290;SDS011;6208;48.956;9.076;2024-03-02T04:03:54;14.07;;;11.07;;
12290;SDS011;6208;48.956;9.076;2024-03-02T04:06:39;15.90;;;12.37;;
12290;SDS011;6208;48.956;9.076;2024-03-02T04:09:23;14.43;;;11.83;;
12290;SDS011;6208;48.956;9.076;2024-03-02T04:12:09;13.57;;;11.17;;
12290;SDS011;6208;48.956;9.076;2024-03-02T04:14:53;13.60;;;11.67;;
12290;SDS011;6208;48.956;9.076;2024-03-02T04:17:38;13.37;;;11.97;;
12290;SDS011;6208;48.956;9.076;2024-03-02T04:20:22;13.33;;;11.70;;
12290;SDS011;6208;48.956;9.076;2024-03-02T04:23:07;14.73;;;11.70;;
12290;SDS011;6208;48.956;9.076;2024-03-02T04:25:51;13.07;;;10.70;;
12290;SDS011;6208;48.956;9.076;2024-03-02T04:28:36;12.30;;;11.00;;
12290;SDS011;6208;48.956;9.076;2024-03-02T04:31:20;13.13;;;11.83;;
12290;SDS011;6208;48.956;9.076;2024-03-02T04:34:05;14.03;;;11.37;;
12290;SDS011;6208;48.956;9.076;2024-03-02T04:36:50;14.33;;;11.23;;
12290;SDS011;6208;48.956;9.076;2024-03-02T04:39:35;13.43;;;11.50;;
12290;SDS011;6208;48.956;9.076;2024-03-02T04:42:20;15.63;;;11.93;;
12290;SDS011;6208;48.956;9.076;2024-03-02T04:45:04;14.63;;;11.43;;
12290;SDS011;6208;48.956;9.076;2024-03-02T04:47:49;15.33;;;12.10;;
12290;SDS011;6208;48.956;9.076;2024-03-02T04:50:33;13.97;;;11.17;;
12290;SDS011;6208;48.956;9.076;2024-03-02T04:53:18;15.27;;;12.10;;
12290;SDS011;6208;48.956;9.076;2024-03-02T04:56:03;15.07;;;11.80;;
12290;SDS011;6208;48.956;9.076;2024-03-02T04:59:06;16.77;;;12.77;;
12290;SDS011;6208;48.956;9.076;2024-03-02T05:01:50;13.53;;;11.83;;
12290;SDS011;6208;48.956;9.076;2024-03-02T05:04:35;13.53;;;11.40;;
12290;SDS011;6208;48.956;9.076;2024-03-02T05:07:20;18.03;;;12.17;;
12290;SDS011;6208;48.956;9.076;2024-03-02T05:10:04;13.77;;;12.27;;
12290;SDS011;6208;48.956;9.076;2024-03-02T05:12:49;14.90;;;11.87;;
12290;SDS011;6208;48.956;9.076;2024-03-02T05:15:40;14.10;;;11.80;;
12290;SDS011;6208;48.956;9.076;2024-03-02T05:18:27;15.73;;;12.27;;
12290;SDS011;6208;48.956;9.076;2024-03-02T05:21:11;14.90;;;11.70;;
12290;SDS011;6208;48.956;9.076;2024-03-02T05:23:56;16.10;;;12.30;;
12290;SDS011;6208;48.956;9.076;2024-03-02T05:26:40;13.20;;;11.37;;
12290;SDS011;6208;48.956;9.076;2024-03-02T05:29:25;12.77;;;11.43;;
12290;SDS011;6208;48.956;9.076;2024-03-02T05:32:09;13.53;;;11.43;;
12290;SDS011;6208;48.956;9.076;2024-03-02T05:34:54;14.73;;;11.93;;
12290;SDS011;6208;48.956;9.076;2024-03-02T05:37:38;15.50;;;11.97;;
12290;SDS011;6208;48.956;9.076;2024-03-02T05:40:23;13.47;;;11.90;;
12290;SDS011;6208;48.956;9.076;2024-03-02T05:43:07;14.50;;;11.63;;
12290;SDS011;6208;48.956;9.076;2024-03-02T05:45:52;14.90;;;12.33;;
12290;SDS011;6208;48.956;9.076;2024-03-02T05:48:36;15.27;;;12.27;;
12290;SDS011;6208;48.956;9.076;2024-03-02T05:51:21;15.47;;;12.53;;
12290;SDS011;6208;48.956;9.076;2024-03-02T05:54:06;15.73;;;13.07;;
12290;SDS011;6208;48.956;9.076;2024-03-02T05:56:50;15.37;;;12.40;;
12290;SDS011;6208;48.956;9.076;2024-03-02T05:59:35;13.13;;;11.77;;
12290;SDS011;6208;48.956;9.076;2024-03-02T06:02:19;16.07;;;11.90;;
12290;SDS011;6208;48.956;9.076;2024-03-02T06:05:04;14.27;;;12.27;;
12290;SDS011;6208;48.956;9.076;2024-03-02T06:07:48;17.77;;;13.10;;
12290;SDS011;6208;48.956;9.076;2024-03-02T06:10:33;13.17;;;11.53;;
12290;SDS011;6208;48.956;9.076;2024-03-02T06:13:17;15.03;;;11.40;;
12290;SDS011;6208;48.956;9.076;2024-03-02T06:16:02;15.20;;;12.13;;
12290;SDS011;6208;48.956;9.076;2024-03-02T06:18:47;15.50;;;12.47;;
12290;SDS011;6208;48.956;9.076;2024-03-02T06:21:31;16.10;;;13.27;;
12290;SDS011;6208;48.956;9.076;2024-03-02T06:24:16;17.30;;;12.83;;
12290;SDS011;6208;48.956;9.076;2024-03-02T06:27:00;17.80;;;13.00;;
12290;SDS011;6208;48.956;9.076;2024-03-02T06:29:45;17.73;;;13.53;;
12290;SDS011;6208;48.956;9.076;2024-03-02T06:32:30;15.30;;;12.67;;
12290;SDS011;6208;48.956;9.076;2024-03-02T06:35:14;15.07;;;12.63;;
12290;SDS011;6208;48.956;9.076;2024-03-02T06:37:59;14.03;;;11.93;;
12290;SDS011;6208;48.956;9.076;2024-03-02T06:40:43;16.30;;;12.67;;
12290;SDS011;6208;48.956;9.076;2024-03-02T06:43:28;17.23;;;12.67;;
12290;SDS011;6208;48.956;9.076;2024-03-02T06:46:13;15.27;;;13.60;;
12290;SDS011;6208;48.956;9.076;2024-03-02T06:48:58;14.80;;;13.00;;
12290;SDS011;6208;48.956;9.076;2024-03-02T06:51:43;18.03;;;14.03;;
12290;SDS011;6208;48.956;9.076;2024-03-02T06:54:28;16.47;;;12.97;;
12290;SDS011;6208;48.956;9.076;2024-03-02T06:57:13;17.50;;;13.90;;
12290;SDS011;6208;48.956;9.076;2024-03-02T06:59:57;15.87;;;13.30;;
12290;SDS011;6208;48.956;9.076;2024-03-02T07:02:42;18.73;;;14.13;;
12290;SDS011;6208;48.956;9.076;2024-03-02T07:05:26;15.07;;;13.33;;
12290;SDS011;6208;48.956;9.076;2024-03-02T07:08:11;17.03;;;13.40;;
12290;SDS011;6208;48.956;9.076;2024-03-02T07:10:55;17.43;;;13.73;;
12290;SDS011;6208;48.956;9.076;2024-03-02T07:13:40;15.83;;;14.13;;
12290;SDS011;6208;48.956;9.076;2024-03-02T07:16:26;18.03;;;12.80;;
12290;SDS011;6208;48.956;9.076;2024-03-02T07:19:16;16.13;;;12.53;;
12290;SDS011;6208;48.956;9.076;2024-03-02T07:22:01;15.97;;;12.83;;
12290;SDS011;6208;48.956;9.076;2024-03-02T07:24:45;15.73;;;13.50;;
12290;SDS011;6208;48.956;9.076;2024-03-02T07:27:30;15.63;;;13.17;;
12290;SDS011;6208;48.956;9.076;2024-03-02T07:30:15;14.53;;;12.93;;
12290;SDS011;6208;48.956;9.076;2024-03-02T07:33:02;16.23;;;13.23;;
12290;SDS011;6208;48.956;9.076;2024-03-02T07:35:48;15.83;;;13.27;;
12290;SDS011;6208;48.956;9.076;2024-03-02T07:38:32;16.53;;;12.57;;
12290;SDS011;6208;48.956;9.076;2024-03-02T07:41:18;19.50;;;13.20;;
12290;SDS011;6208;48.956;9.076;2024-03-02T07:44:03;14.53;;;12.67;;
12290;SDS011;6208;48.956;9.076;2024-03-02T07:46:48;15.77;;;13.00;;
12290;SDS011;6208;48.956;9.076;2024-03-02T07:49:36;16.73;;;13.23;;
12290;SDS011;6208;48.956;9.076;2024-03-02T07:52:20;18.60;;;13.50;;
12290;SDS011;6208;48.956;9.076;2024-03-02T07:55:04;18.57;;;13.37;;
12290;SDS011;6208;48.956;9.076;2024-03-02T07:57:48;18.70;;;15.53;;
12290;SDS011;6208;48.956;9.076;2024-03-02T08:00:33;18.97;;;16.23;;
12290;SDS011;6208;48.956;9.076;2024-03-02T08:03:18;16.57;;;13.73;;
12290;SDS011;6208;48.956;9.076;2024-03-02T08:06:03;15.27;;;12.77;;
12290;SDS011;6208;48.956;9.076;2024-03-02T08:08:48;15.20;;;12.50;;
12290;SDS011;6208;48.956;9.076;2024-03-02T08:11:32;17.47;;;13.23;;
12290;SDS011;6208;48.956;9.076;2024-03-02T08:14:16;15.20;;;11.90;;
12290;SDS011;6208;48.956;9.076;2024-03-02T08:17:00;13.83;;;11.70;;
12290;SDS011;6208;48.956;9.076;2024-03-02T08:19:45;15.30;;;12.67;;
12290;SDS011;6208;48.956;9.076;2024-03-02T08:22:31;13.60;;;11.55;;
12290;SDS011;6208;48.956;9.076;2024-03-02T08:25:16;13.90;;;11.90;;
12290;SDS011;6208;48.956;9.076;2024-03-02T08:28:00;13.33;;;11.90;;
12290;SDS011;6208;48.956;9.076;2024-03-02T08:30:45;16.40;;;12.10;;
12290;SDS011;6208;48.956;9.076;2024-03-02T08:33:29;13.82;;;11.65;;
12290;SDS011;6208;48.956;9.076;2024-03-02T08:36:14;13.85;;;11.50;;
12290;SDS011;6208;48.956;9.076;2024-03-02T08:38:59;13.38;;;11.88;;
12290;SDS011;6208;48.956;9.076;2024-03-02T08:41:46;14.93;;;12.15;;
12290;SDS011;6208;48.956;9.076;2024-03-02T08:44:31;15.38;;;11.82;;
12290;SDS011;6208;48.956;9.076;2024-03-02T08:47:16;12.15;;;10.85;;
12290;SDS011;6208;48.956;9.076;2024-03-02T08:50:01;13.20;;;11.80;;
12290;SDS011;6208;48.956;9.076;2024-03-02T08:52:47;12.55;;;10.30;;
12290;SDS011;6208;48.956;9.076;2024-03-02T08:55:32;12.02;;;10.73;;
12290;SDS011;6208;48.956;9.076;2024-03-02T08:58:16;11.60;;;10.30;;
12290;SDS011;6208;48.956;9.076;2024-03-02T09:01:00;11.80;;;10.60;;
12290;SDS011;6208;48.956;9.076;2024-03-02T09:03:45;10.70;;;9.63;;
12290;SDS011;6208;48.956;9.076;2024-03-02T09:06:29;12.93;;;10.77;;
12290;SDS011;6208;48.956;9.076;2024-03-02T09:09:14;10.65;;;9.63;;
12290;SDS011;6208;48.956;9.076;2024-03-02T09:11:58;10.32;;;9.23;;
12290;SDS011;6208;48.956;9.076;2024-03-02T09:14:43;10.88;;;9.63;;
12290;SDS011;6208;48.956;9.076;2024-03-02T09:17:27;10.68;;;9.10;;
12290;SDS011;6208;48.956;9.076;2024-03-02T09:20:12;9.40;;;8.48;;
12290;SDS011;6208;48.956;9.076;2024-03-02T09:22:59;9.70;;;8.20;;
12290;SDS011;6208;48.956;9.076;2024-03-02T09:25:43;8.38;;;7.53;;
12290;SDS011;6208;48.956;9.076;2024-03-02T09:28:28;7.95;;;7.15;;
12290;SDS011;6208;48.956;9.076;2024-03-02T09:31:13;8.07;;;6.85;;
12290;SDS011;6208;48.956;9.076;2024-03-02T09:33:57;8.82;;;7.55;;
12290;SDS011;6208;48.956;9.076;2024-03-02T09:36:42;7.95;;;7.25;;
12290;SDS011;6208;48.956;9.076;2024-03-02T09:39:26;7.88;;;7.13;;
12290;SDS011;6208;48.956;9.076;2024-03-02T09:42:11;7.65;;;7.00;;
12290;SDS011;6208;48.956;9.076;2024-03-02T09:44:56;7.85;;;7.05;;
12290;SDS011;6208;48.956;9.076;2024-03-02T09:47:40;9.55;;;7.43;;
12290;SDS011;6208;48.956;9.076;2024-03-02T09:50:25;6.70;;;6.10;;
12290;SDS011;6208;48.956;9.076;2024-03-02T09:53:09;7.10;;;6.43;;
12290;SDS011;6208;48.956;9.076;2024-03-02T09:55:55;7.45;;;6.72;;
12290;SDS011;6208;48.956;9.076;2024-03-02T09:58:39;7.70;;;6.40;;
12290;SDS011;6208;48.956;9.076;2024-03-02T10:01:24;7.70;;;6.78;;
12290;SDS011;6208;48.956;9.076;2024-03-02T10:04:08;6.78;;;6.07;;
12290;SDS011;6208;48.956;9.076;2024-03-02T10:07:09;6.47;;;5.88;;
12290;SDS011;6208;48.956;9.076;2024-03-02T10:09:56;7.18;;;6.47;;
12290;SDS011;6208;48.956;9.076;2024-03-02T10:12:40;6.95;;;6.25;;
12290;SDS011;6208;48.956;9.076;2024-03-02T10:15:25;6.80;;;6.20;;
12290;SDS011;6208;48.956;9.076;2024-03-02T10:18:09;6.38;;;5.32;;
12290;SDS011;6208;48.956;9.076;2024-03-02T10:21:04;6.30;;;5.70;;
12290;SDS011;6208;48.956;9.076;2024-03-02T10:24:06;6.30;;;5.75;;
12290;SDS011;6208;48.956;9.076;2024-03-02T10:26:53;8.43;;;5.60;;
12290;SDS011;6208;48.956;9.076;2024-03-02T10:29:40;5.90;;;5.40;;
12290;SDS011;6208;48.956;9.076;2024-03-02T10:32:25;5.38;;;4.93;;
12290;SDS011;6208;48.956;9.076;2024-03-02T10:35:10;6.32;;;5.72;;
12290;SDS011;6208;48.956;9.076;2024-03-02T10:37:54;5.45;;;4.95;;
12290;SDS011;6208;48.956;9.076;2024-03-02T10:40:38;5.90;;;5.40;;
12290;SDS011;6208;48.956;9.076;2024-03-02T10:43:22;5.30;;;4.80;;
12290;SDS011;6208;48.956;9.076;2024-03-02T10:46:07;5.50;;;5.07;;
12290;SDS011;6208;48.956;9.076;2024-03-02T10:48:51;5.63;;;5.22;;
12290;SDS011;6208;48.956;9.076;2024-03-02T10:51:36;5.68;;;5.18;;
12290;SDS011;6208;48.956;9.076;2024-03-02T10:54:21;4.80;;;4.40;;
12290;SDS011;6208;48.956;9.076;2024-03-02T10:57:10;4.97;;;4.60;;
12290;SDS011;6208;48.956;9.076;2024-03-02T10:59:56;4.35;;;4.03;;
12290;SDS011;6208;48.956;9.076;2024-03-02T11:02:50;4.97;;;4.57;;
12290;SDS011;6208;48.956;9.076;2024-03-02T11:05:36;4.43;;;4.13;;
12290;SDS011;6208;48.956;9.076;2024-03-02T11:08:23;5.15;;;4.65;;
12290;SDS011;6208;48.956;9.076;2024-03-02T11:11:13;5.03;;;4.63;;
12290;SDS011;6208;48.956;9.076;2024-03-02T11:14:02;4.28;;;3.97;;
12290;SDS011;6208;48.956;9.076;2024-03-02T11:16:52;4.82;;;4.43;;
12290;SDS011;6208;48.956;9.076;2024-03-02T11:19:38;3.90;;;3.60;;
12290;SDS011;6208;48.956;9.076;2024-03-02T11:22:24;3.85;;;3.65;;
12290;SDS011;6208;48.956;9.076;2024-03-02T11:25:25;3.75;;;3.45;;
12290;SDS011;6208;48.956;9.076;2024-03-02T11:28:10;3.22;;;3.03;;
12290;SDS011;6208;48.956;9.076;2024-03-02T11:30:54;3.30;;;3.10;;
12290;SDS011;6208;48.956;9.076;2024-03-02T11:33:39;2.78;;;2.58;;
12290;SDS011;6208;48.956;9.076;2024-03-02T11:36:23;2.95;;;2.75;;
12290;SDS011;6208;48.956;9.076;2024-03-02T11:39:08;2.78;;;2.58;;
12290;SDS011;6208;48.956;9.076;2024-03-02T11:41:53;2.80;;;2.60;;
12290;SDS011;6208;48.956;9.076;2024-03-02T11:44:38;3.03;;;2.83;;
12290;SDS011;6208;48.956;9.076;2024-03-02T11:47:22;2.95;;;2.75;;
12290;SDS011;6208;48.956;9.076;2024-03-02T11:50:07;3.10;;;2.90;;
12290;SDS011;6208;48.956;9.076;2024-03-02T11:52:51;2.78;;;2.60;;
12290;SDS011;6208;48.956;9.076;2024-03-02T11:55:37;2.72;;;2.53;;
12290;SDS011;6208;48.956;9.076;2024-03-02T11:58:23;2.83;;;2.63;;
12290;SDS011;6208;48.956;9.076;2024-03-02T12:01:08;4.10;;;2.80;;
12290;SDS011;6208;48.956;9.076;2024-03-02T12:03:52;2.80;;;2.60;;
12290;SDS011;6208;48.956;9.076;2024-03-02T12:06:39;2.67;;;2.47;;
12290;SDS011;6208;48.956;9.076;2024-03-02T12:09:23;2.28;;;2.17;;
12290;SDS011;6208;48.956;9.076;2024-03-02T12:12:08;2.47;;;2.28;;
12290;SDS011;6208;48.956;9.076;2024-03-02T12:14:53;1.80;;;1.70;;
12290;SDS011;6208;48.956;9.076;2024-03-02T12:17:39;2.20;;;2.00;;
12290;SDS011;6208;48.956;9.076;2024-03-02T12:20:24;1.60;;;1.50;;
12290;SDS011;6208;48.956;9.076;2024-03-02T12:23:09;1.45;;;1.35;;
12290;SDS011;6208;48.956;9.076;2024-03-02T12:25:53;1.75;;;1.65;;
12290;SDS011;6208;48.956;9.076;2024-03-02T12:28:38;1.90;;;1.80;;
12290;SDS011;6208;48.956;9.076;2024-03-02T12:31:22;1.85;;;1.75;;
12290;SDS011;6208;48.956;9.076;2024-03-02T12:34:06;1.42;;;1.33;;
12290;SDS011;6208;48.956;9.076;2024-03-02T12:36:50;1.98;;;1.80;;
12290;SDS011;6208;48.956;9.076;2024-03-02T12:39:36;1.88;;;1.42;;
12290;SDS011;6208;48.956;9.076;2024-03-02T12:42:21;1.45;;;1.42;;
12290;SDS011;6208;48.956;9.076;2024-03-02T12:45:07;1.30;;;1.30;;
12290;SDS011;6208;48.956;9.076;2024-03-02T12:47:52;1.60;;;1.50;;
12290;SDS011;6208;48.956;9.076;2024-03-02T12:50:36;1.70;;;1.60;;
12290;SDS011;6208;48.956;9.076;2024-03-02T12:53:21;1.40;;;1.30;;
12290;SDS011;6208;48.956;9.076;2024-03-02T12:56:05;1.27;;;1.20;;
12290;SDS011;6208;48.956;9.076;2024-03-02T12:58:55;1.35;;;1.35;;
12290;SDS011;6208;48.956;9.076;2024-03-02T13:01:39;2.45;;;1.20;;
12290;SDS011;6208;48.956;9.076;2024-03-02T13:04:34;1.48;;;1.35;;
12290;SDS011;6208;48.956;9.076;2024-03-02T13:07:18;1.20;;;1.20;;
12290;SDS011;6208;48.956;9.076;2024-03-02T13:10:03;2.10;;;1.33;;
12290;SDS011;6208;48.956;9.076;2024-03-02T13:12:48;1.10;;;1.10;;
12290;SDS011;6208;48.956;9.076;2024-03-02T13:15:33;0.90;;;0.90;;
12290;SDS011;6208;48.956;9.076;2024-03-02T13:18:18;1.13;;;1.13;;
12290;SDS011;6208;48.956;9.076;2024-03-02T13:21:03;1.40;;;1.30;;
12290;SDS011;6208;48.956;9.076;2024-03-02T13:23:47;1.35;;;1.23;;
12290;SDS011;6208;48.956;9.076;2024-03-02T13:26:31;1.10;;;1.00;;
12290;SDS011;6208;48.956;9.076;2024-03-02T13:29:15;1.17;;;1.08;;
12290;SDS011;6208;48.956;9.076;2024-03-02T13:31:59;0.98;;;0.98;;
12290;SDS011;6208;48.956;9.076;2024-03-02T13:34:44;1.05;;;1.05;;
12290;SDS011;6208;48.956;9.076;2024-03-02T13:37:28;1.25;;;1.25;;
12290;SDS011;6208;48.956;9.076;2024-03-02T13:40:13;0.90;;;0.90;;
12290;SDS011;6208;48.956;9.076;2024-03-02T13:43:02;1.45;;;1.00;;
12290;SDS011;6208;48.956;9.076;2024-03-02T13:45:47;0.90;;;0.90;;
12290;SDS011;6208;48.956;9.076;2024-03-02T13:48:31;1.15;;;1.15;;
12290;SDS011;6208;48.956;9.076;2024-03-02T13:51:15;1.00;;;1.00;;
12290;SDS011;6208;48.956;9.076;2024-03-02T13:54:00;0.90;;;0.90;;
12290;SDS011;6208;48.956;9.076;2024-03-02T13:56:46;1.00;;;1.00;;
12290;SDS011;6208;48.956;9.076;2024-03-02T13:59:31;0.80;;;0.80;;
12290;SDS011;6208;48.956;9.076;2024-03-02T14:02:16;0.82;;;0.82;;
12290;SDS011;6208;48.956;9.076;2024-03-02T14:05:01;0.80;;;0.80;;
12290;SDS011;6208;48.956;9.076;2024-03-02T14:07:46;0.85;;;0.85;;
12290;SDS011;6208;48.956;9.076;2024-03-02T14:10:30;51.00;;;25.23;;
12290;SDS011;6208;48.956;9.076;2024-03-02T14:13:14;15.95;;;4.53;;
12290;SDS011;6208;48.956;9.076;2024-03-02T14:15:59;3.47;;;2.65;;
12290;SDS011;6208;48.956;9.076;2024-03-02T14:18:43;2.28;;;1.75;;
12290;SDS011;6208;48.956;9.076;2024-03-02T14:21:27;2.10;;;1.90;;
12290;SDS011;6208;48.956;9.076;2024-03-02T14:24:12;1.55;;;1.48;;
12290;SDS011;6208;48.956;9.076;2024-03-02T14:26:56;1.77;;;1.42;;
12290;SDS011;6208;48.956;9.076;2024-03-02T14:29:43;4.15;;;3.70;;
12290;SDS011;6208;48.956;9.076;2024-03-02T14:32:27;2.05;;;1.95;;
12290;SDS011;6208;48.956;9.076;2024-03-02T14:35:12;1.52;;;1.48;;
12290;SDS011;6208;48.956;9.076;2024-03-02T14:37:56;1.50;;;1.40;;
12290;SDS011;6208;48.956;9.076;2024-03-02T14:40:41;1.50;;;1.20;;
12290;SDS011;6208;48.956;9.076;2024-03-02T14:43:26;1.08;;;1.08;;
12290;SDS011;6208;48.956;9.076;2024-03-02T14:46:10;1.38;;;1.27;;
12290;SDS011;6208;48.956;9.076;2024-03-02T14:48:55;0.82;;;0.82;;
12290;SDS011;6208;48.956;9.076;2024-03-02T14:51:41;1.05;;;1.05;;
12290;SDS011;6208;48.956;9.076;2024-03-02T14:54:25;1.10;;;1.10;;
12290;SDS011;6208;48.956;9.076;2024-03-02T14:57:09;1.90;;;1.20;;
12290;SDS011;6208;48.956;9.076;2024-03-02T14:59:55;0.95;;;0.95;;
12290;SDS011;6208;48.956;9.076;2024-03-02T15:02:39;0.90;;;0.90;;
12290;SDS011;6208;48.956;9.076;2024-03-02T15:05:23;0.90;;;0.90;;
12290;SDS011;6208;48.956;9.076;2024-03-02T15:08:09;1.13;;;1.02;;
12290;SDS011;6208;48.956;9.076;2024-03-02T15:10:54;0.80;;;0.80;;
12290;SDS011;6208;48.956;9.076;2024-03-02T15:13:42;1.05;;;1.05;;
12290;SDS011;6208;48.956;9.076;2024-03-02T15:16:27;0.90;;;0.90;;
12290;SDS011;6208;48.956;9.076;2024-03-02T15:19:12;1.30;;;1.20;;
12290;SDS011;6208;48.956;9.076;2024-03-02T15:21:56;1.15;;;1.13;;
12290;SDS011;6208;48.956;9.076;2024-03-02T15:24:41;1.02;;;1.02;;
12290;SDS011;6208;48.956;9.076;2024-03-02T15:27:25;1.00;;;1.00;;
12290;SDS011;6208;48.956;9.076;2024-03-02T15:30:10;1.20;;;1.20;;
12290;SDS011;6208;48.956;9.076;2024-03-02T15:32:55;1.10;;;1.10;;
12290;SDS011;6208;48.956;9.076;2024-03-02T15:35:40;1.45;;;1.30;;
12290;SDS011;6208;48.956;9.076;2024-03-02T15:38:24;1.10;;;0.95;;
12290;SDS011;6208;48.956;9.076;2024-03-02T15:41:09;1.30;;;1.20;;
12290;SDS011;6208;48.956;9.076;2024-03-02T15:43:54;1.10;;;1.10;;
12290;SDS011;6208;48.956;9.076;2024-03-02T15:46:39;1.30;;;1.20;;
12290;SDS011;6208;48.956;9.076;2024-03-02T15:49:23;0.90;;;0.90;;
12290;SDS011;6208;48.956;9.076;2024-03-02T15:52:08;1.38;;;1.17;;
12290;SDS011;6208;48.956;9.076;2024-03-02T15:54:53;0.93;;;0.93;;
12290;SDS011;6208;48.956;9.076;2024-03-02T15:57:37;1.15;;;1.05;;
12290;SDS011;6208;48.956;9.076;2024-03-02T16:00:22;1.05;;;0.98;;
12290;SDS011;6208;48.956;9.076;2024-03-02T16:03:07;0.85;;;0.85;;
12290;SDS011;6208;48.956;9.076;2024-03-02T16:05:51;0.90;;;0.90;;
12290;SDS011;6208;48.956;9.076;2024-03-02T16:08:35;1.00;;;0.77;;
12290;SDS011;6208;48.956;9.076;2024-03-02T16:11:19;3.05;;;1.23;;
12290;SDS011;6208;48.956;9.076;2024-03-02T16:14:04;1.73;;;1.08;;
12290;SDS011;6208;48.956;9.076;2024-03-02T16:16:48;1.23;;;1.23;;
12290;SDS011;6208;48.956;9.076;2024-03-02T16:19:33;2.30;;;2.10;;
12290;SDS011;6208;48.956;9.076;2024-03-02T16:22:17;1.50;;;1.40;;
12290;SDS011;6208;48.956;9.076;2024-03-02T16:25:03;1.92;;;1.63;;
12290;SDS011;6208;48.956;9.076;2024-03-02T16:27:48;1.50;;;1.30;;
12290;SDS011;6208;48.956;9.076;2024-03-02T16:30:32;2.80;;;1.45;;
12290;SDS011;6208;48.956;9.076;2024-03-02T16:33:17;1.70;;;1.60;;
12290;SDS011;6208;48.956;9.076;2024-03-02T16:36:01;1.42;;;1.38;;
12290;SDS011;6208;48.956;9.076;2024-03-02T16:38:46;1.67;;;1.58;;